sensor_id;sensor_type;location;lat;lon;timestamp;P1;durP1;ratioP1;P2;durP2;ratioP2
35959;SDS011;22043;50.970;7.192;2023-04-24T00:01:26;1.33;;;0.47;;
35959;SDS011;22043;50.970;7.192;2023-04-24T00:03:51;1.55;;;0.50;;
35959;SDS011;22043;50.970;7.192;2023-04-24T00:06:17;2.40;;;0.50;;
35959;SDS011;22043;50.970;7.192;2023-04-24T00:08:42;0.90;;;0.47;;
35959;SDS011;22043;50.970;7.192;2023-04-24T00:11:08;2.30;;;0.60;;
35959;SDS011;22043;50.970;7.192;2023-04-24T00:13:34;1.63;;;0.50;;
35959;SDS011;22043;50.970;7.192;2023-04-24T00:16:00;1.15;;;0.63;;
35959;SDS011;22043;50.970;7.192;2023-04-24T00:18:26;2.45;;;0.60;;
35959;SDS011;22043;50.970;7.192;2023-04-24T00:20:51;1.35;;;0.52;;
35959;SDS011;22043;50.970;7.192;2023-04-24T00:23:17;0.88;;;0.60;;
35959;SDS011;22043;50.970;7.192;2023-04-24T00:25:42;1.35;;;0.65;;
35959;SDS011;22043;50.970;7.192;2023-04-24T00:28:07;1.02;;;0.55;;
35959;SDS011;22043;50.970;7.192;2023-04-24T00:30:33;1.42;;;0.60;;
35959;SDS011;22043;50.970;7.192;2023-04-24T00:32:59;2.00;;;0.50;;
35959;SDS011;22043;50.970;7.192;2023-04-24T00:35:24;1.10;;;0.60;;
35959;SDS011;22043;50.970;7.192;2023-04-24T00:37:51;2.25;;;0.55;;
35959;SDS011;22043;50.970;7.192;2023-04-24T00:40:16;1.30;;;0.50;;
35959;SDS011;22043;50.970;7.192;2023-04-24T00:42:43;0.63;;;0.43;;
35959;SDS011;22043;50.970;7.192;2023-04-24T00:45:09;0.70;;;0.50;;
35959;SDS011;22043;50.970;7.192;2023-04-24T00:47:35;1.30;;;0.75;;
35959;SDS011;22043;50.970;7.192;2023-04-24T00:50:04;1.00;;;0.50;;
35959;SDS011;22043;50.970;7.192;2023-04-24T00:52:31;1.23;;;0.50;;
35959;SDS011;22043;50.970;7.192;2023-04-24T00:54:57;3.10;;;0.70;;
35959;SDS011;22043;50.970;7.192;2023-04-24T00:57:23;1.35;;;0.70;;
35959;SDS011;22043;50.970;7.192;2023-04-24T00:59:50;1.80;;;0.70;;
35959;SDS011;22043;50.970;7.192;2023-04-24T01:02:17;0.82;;;0.35;;
35959;SDS011;22043;50.970;7.192;2023-04-24T01:04:43;0.70;;;0.55;;
35959;SDS011;22043;50.970;7.192;2023-04-24T01:07:08;1.67;;;0.70;;
35959;SDS011;22043;50.970;7.192;2023-04-24T01:09:42;1.48;;;0.60;;
35959;SDS011;22043;50.970;7.192;2023-04-24T01:12:12;0.80;;;0.40;;
35959;SDS011;22043;50.970;7.192;2023-04-24T01:14:37;1.27;;;0.57;;
35959;SDS011;22043;50.970;7.192;2023-04-24T01:17:03;1.35;;;0.68;;
35959;SDS011;22043;50.970;7.192;2023-04-24T01:19:29;2.83;;;0.60;;
35959;SDS011;22043;50.970;7.192;2023-04-24T01:21:56;2.25;;;0.57;;
35959;SDS011;22043;50.970;7.192;2023-04-24T01:24:24;2.15;;;0.80;;
35959;SDS011;22043;50.970;7.192;2023-04-24T01:26:50;1.55;;;0.60;;
35959;SDS011;22043;50.970;7.192;2023-04-24T01:29:17;2.65;;;1.10;;
35959;SDS011;22043;50.970;7.192;2023-04-24T01:31:43;2.00;;;0.93;;
35959;SDS011;22043;50.970;7.192;2023-04-24T01:34:08;3.42;;;1.13;;
35959;SDS011;22043;50.970;7.192;2023-04-24T01:36:34;1.50;;;0.90;;
35959;SDS011;22043;50.970;7.192;2023-04-24T01:39:01;4.03;;;1.23;;
35959;SDS011;22043;50.970;7.192;2023-04-24T01:41:27;3.17;;;1.40;;
35959;SDS011;22043;50.970;7.192;2023-04-24T01:43:53;1.80;;;0.98;;
35959;SDS011;22043;50.970;7.192;2023-04-24T01:46:19;1.90;;;0.90;;
35959;SDS011;22043;50.970;7.192;2023-04-24T01:48:45;3.05;;;1.10;;
35959;SDS011;22043;50.970;7.192;2023-04-24T01:51:11;2.10;;;0.73;;
35959;SDS011;22043;50.970;7.192;2023-04-24T01:53:36;4.13;;;1.27;;
35959;SDS011;22043;50.970;7.192;2023-04-24T01:56:02;2.20;;;1.10;;
35959;SDS011;22043;50.970;7.192;2023-04-24T01:58:28;1.98;;;0.90;;
35959;SDS011;22043;50.970;7.192;2023-04-24T02:00:56;1.63;;;1.00;;
35959;SDS011;22043;50.970;7.192;2023-04-24T02:03:22;1.50;;;0.95;;
35959;SDS011;22043;50.970;7.192;2023-04-24T02:05:48;4.03;;;1.35;;
35959;SDS011;22043;50.970;7.192;2023-04-24T02:08:13;3.53;;;1.08;;
35959;SDS011;22043;50.970;7.192;2023-04-24T02:10:39;2.50;;;1.48;;
35959;SDS011;22043;50.970;7.192;2023-04-24T02:13:04;2.05;;;1.23;;
35959;SDS011;22043;50.970;7.192;2023-04-24T02:15:30;3.92;;;1.35;;
35959;SDS011;22043;50.970;7.192;2023-04-24T02:17:55;3.25;;;1.60;;
35959;SDS011;22043;50.970;7.192;2023-04-24T02:20:21;3.75;;;1.75;;
35959;SDS011;22043;50.970;7.192;2023-04-24T02:22:46;3.05;;;1.67;;
35959;SDS011;22043;50.970;7.192;2023-04-24T02:25:12;4.38;;;1.83;;
35959;SDS011;22043;50.970;7.192;2023-04-24T02:27:37;4.13;;;2.22;;
35959;SDS011;22043;50.970;7.192;2023-04-24T02:30:05;3.40;;;2.17;;
35959;SDS011;22043;50.970;7.192;2023-04-24T02:32:31;5.18;;;2.13;;
35959;SDS011;22043;50.970;7.192;2023-04-24T02:34:57;5.05;;;2.35;;
35959;SDS011;22043;50.970;7.192;2023-04-24T02:37:22;5.22;;;2.15;;
35959;SDS011;22043;50.970;7.192;2023-04-24T02:39:47;4.55;;;2.17;;
35959;SDS011;22043;50.970;7.192;2023-04-24T02:42:13;5.10;;;2.38;;
35959;SDS011;22043;50.970;7.192;2023-04-24T02:44:38;3.95;;;2.40;;
35959;SDS011;22043;50.970;7.192;2023-04-24T02:47:04;5.15;;;2.92;;
35959;SDS011;22043;50.970;7.192;2023-04-24T02:49:29;6.45;;;2.67;;
35959;SDS011;22043;50.970;7.192;2023-04-24T02:51:57;4.22;;;2.70;;
35959;SDS011;22043;50.970;7.192;2023-04-24T02:54:23;4.30;;;2.53;;
35959;SDS011;22043;50.970;7.192;2023-04-24T02:56:48;5.30;;;2.70;;
35959;SDS011;22043;50.970;7.192;2023-04-24T02:59:13;6.10;;;2.75;;
35959;SDS011;22043;50.970;7.192;2023-04-24T03:01:39;5.05;;;2.35;;
35959;SDS011;22043;50.970;7.192;2023-04-24T03:04:04;5.20;;;2.67;;
35959;SDS011;22043;50.970;7.192;2023-04-24T03:06:30;6.18;;;3.17;;
35959;SDS011;22043;50.970;7.192;2023-04-24T03:08:58;4.63;;;3.00;;
35959;SDS011;22043;50.970;7.192;2023-04-24T03:11:24;7.90;;;2.65;;
35959;SDS011;22043;50.970;7.192;2023-04-24T03:13:50;5.45;;;3.42;;
35959;SDS011;22043;50.970;7.192;2023-04-24T03:16:15;4.88;;;3.15;;
35959;SDS011;22043;50.970;7.192;2023-04-24T03:18:41;5.95;;;3.35;;
35959;SDS011;22043;50.970;7.192;2023-04-24T03:21:07;6.32;;;3.50;;
35959;SDS011;22043;50.970;7.192;2023-04-24T03:23:33;5.13;;;3.13;;
35959;SDS011;22043;50.970;7.192;2023-04-24T03:25:59;6.20;;;3.30;;
35959;SDS011;22043;50.970;7.192;2023-04-24T03:28:25;4.75;;;3.00;;
35959;SDS011;22043;50.970;7.192;2023-04-24T03:30:56;6.35;;;3.60;;
35959;SDS011;22043;50.970;7.192;2023-04-24T03:33:23;6.70;;;3.65;;
35959;SDS011;22043;50.970;7.192;2023-04-24T03:35:58;6.25;;;3.50;;
35959;SDS011;22043;50.970;7.192;2023-04-24T03:38:24;5.20;;;2.95;;
35959;SDS011;22043;50.970;7.192;2023-04-24T03:41:02;4.70;;;3.13;;
35959;SDS011;22043;50.970;7.192;2023-04-24T03:43:43;6.38;;;3.13;;
35959;SDS011;22043;50.970;7.192;2023-04-24T03:46:09;7.32;;;4.15;;
35959;SDS011;22043;50.970;7.192;2023-04-24T03:48:39;6.68;;;3.33;;
35959;SDS011;22043;50.970;7.192;2023-04-24T03:51:06;6.00;;;3.78;;
35959;SDS011;22043;50.970;7.192;2023-04-24T03:53:33;5.53;;;3.72;;
35959;SDS011;22043;50.970;7.192;2023-04-24T03:55:59;5.95;;;3.22;;
35959;SDS011;22043;50.970;7.192;2023-04-24T03:58:25;5.95;;;3.20;;
35959;SDS011;22043;50.970;7.192;2023-04-24T04:00:53;5.32;;;3.58;;
35959;SDS011;22043;50.970;7.192;2023-04-24T04:03:37;7.45;;;3.75;;
35959;SDS011;22043;50.970;7.192;2023-04-24T04:06:02;10.63;;;4.45;;
35959;SDS011;22043;50.970;7.192;2023-04-24T04:08:29;5.72;;;3.10;;
35959;SDS011;22043;50.970;7.192;2023-04-24T04:10:55;7.15;;;4.05;;
35959;SDS011;22043;50.970;7.192;2023-04-24T04:13:22;10.00;;;4.10;;
35959;SDS011;22043;50.970;7.192;2023-04-24T04:15:48;7.93;;;3.90;;
35959;SDS011;22043;50.970;7.192;2023-04-24T04:18:13;6.15;;;3.55;;
35959;SDS011;22043;50.970;7.192;2023-04-24T04:20:39;9.85;;;4.22;;
35959;SDS011;22043;50.970;7.192;2023-04-24T04:23:05;7.32;;;3.80;;
35959;SDS011;22043;50.970;7.192;2023-04-24T04:25:43;6.20;;;3.55;;
35959;SDS011;22043;50.970;7.192;2023-04-24T04:28:08;4.82;;;3.30;;
35959;SDS011;22043;50.970;7.192;2023-04-24T04:30:34;7.40;;;3.60;;
35959;SDS011;22043;50.970;7.192;2023-04-24T04:33:02;4.93;;;3.63;;
35959;SDS011;22043;50.970;7.192;2023-04-24T04:35:29;7.38;;;3.20;;
35959;SDS011;22043;50.970;7.192;2023-04-24T04:37:55;6.72;;;3.63;;
35959;SDS011;22043;50.970;7.192;2023-04-24T04:40:39;7.25;;;4.07;;
35959;SDS011;22043;50.970;7.192;2023-04-24T04:43:05;8.75;;;3.67;;
35959;SDS011;22043;50.970;7.192;2023-04-24T04:45:40;12.63;;;3.38;;
35959;SDS011;22043;50.970;7.192;2023-04-24T04:48:27;5.38;;;3.45;;
35959;SDS011;22043;50.970;7.192;2023-04-24T04:51:01;6.03;;;3.33;;
35959;SDS011;22043;50.970;7.192;2023-04-24T04:53:30;6.63;;;3.78;;
35959;SDS011;22043;50.970;7.192;2023-04-24T04:55:56;4.82;;;3.20;;
35959;SDS011;22043;50.970;7.192;2023-04-24T04:58:29;5.03;;;3.13;;
35959;SDS011;22043;50.970;7.192;2023-04-24T05:01:10;6.68;;;3.67;;
35959;SDS011;22043;50.970;7.192;2023-04-24T05:03:41;6.30;;;2.80;;
35959;SDS011;22043;50.970;7.192;2023-04-24T05:06:15;4.70;;;3.15;;
35959;SDS011;22043;50.970;7.192;2023-04-24T05:08:45;7.95;;;3.65;;
35959;SDS011;22043;50.970;7.192;2023-04-24T05:11:28;6.05;;;3.50;;
35959;SDS011;22043;50.970;7.192;2023-04-24T05:14:01;7.95;;;4.93;;
35959;SDS011;22043;50.970;7.192;2023-04-24T05:16:39;5.60;;;3.60;;
35959;SDS011;22043;50.970;7.192;2023-04-24T05:19:08;6.07;;;3.90;;
35959;SDS011;22043;50.970;7.192;2023-04-24T05:21:40;5.03;;;3.25;;
35959;SDS011;22043;50.970;7.192;2023-04-24T05:24:10;6.90;;;3.80;;
35959;SDS011;22043;50.970;7.192;2023-04-24T05:26:59;5.70;;;3.03;;
35959;SDS011;22043;50.970;7.192;2023-04-24T05:29:33;10.52;;;3.85;;
35959;SDS011;22043;50.970;7.192;2023-04-24T05:32:00;5.85;;;3.97;;
35959;SDS011;22043;50.970;7.192;2023-04-24T05:34:30;9.23;;;3.65;;
35959;SDS011;22043;50.970;7.192;2023-04-24T05:36:56;6.80;;;3.55;;
35959;SDS011;22043;50.970;7.192;2023-04-24T05:39:22;5.97;;;3.92;;
35959;SDS011;22043;50.970;7.192;2023-04-24T05:41:50;5.47;;;3.35;;
35959;SDS011;22043;50.970;7.192;2023-04-24T05:44:21;5.85;;;3.70;;
35959;SDS011;22043;50.970;7.192;2023-04-24T05:46:49;6.53;;;3.95;;
35959;SDS011;22043;50.970;7.192;2023-04-24T05:49:16;6.40;;;4.05;;
35959;SDS011;22043;50.970;7.192;2023-04-24T05:51:42;5.38;;;3.85;;
35959;SDS011;22043;50.970;7.192;2023-04-24T05:54:08;8.23;;;3.92;;
35959;SDS011;22043;50.970;7.192;2023-04-24T05:56:34;7.93;;;4.38;;
35959;SDS011;22043;50.970;7.192;2023-04-24T05:59:02;6.93;;;3.95;;
35959;SDS011;22043;50.970;7.192;2023-04-24T06:01:33;6.70;;;4.47;;
35959;SDS011;22043;50.970;7.192;2023-04-24T06:04:07;9.00;;;4.30;;
35959;SDS011;22043;50.970;7.192;2023-04-24T06:06:33;11.13;;;4.10;;
35959;SDS011;22043;50.970;7.192;2023-04-24T06:09:00;7.15;;;4.82;;
35959;SDS011;22043;50.970;7.192;2023-04-24T06:11:31;9.60;;;4.65;;
35959;SDS011;22043;50.970;7.192;2023-04-24T06:13:58;7.57;;;4.32;;
35959;SDS011;22043;50.970;7.192;2023-04-24T06:16:43;10.00;;;4.82;;
35959;SDS011;22043;50.970;7.192;2023-04-24T06:21:55;8.93;;;4.50;;
35959;SDS011;22043;50.970;7.192;2023-04-24T06:24:47;7.47;;;4.45;;
35959;SDS011;22043;50.970;7.192;2023-04-24T06:27:20;9.60;;;4.80;;
35959;SDS011;22043;50.970;7.192;2023-04-24T06:29:46;9.00;;;4.47;;
35959;SDS011;22043;50.970;7.192;2023-04-24T06:35:14;8.65;;;5.55;;
35959;SDS011;22043;50.970;7.192;2023-04-24T06:37:42;10.75;;;4.95;;
35959;SDS011;22043;50.970;7.192;2023-04-24T06:40:13;10.48;;;5.32;;
35959;SDS011;22043;50.970;7.192;2023-04-24T06:42:38;9.70;;;4.80;;
35959;SDS011;22043;50.970;7.192;2023-04-24T06:45:07;9.80;;;5.53;;
35959;SDS011;22043;50.970;7.192;2023-04-24T06:47:36;11.25;;;6.68;;
35959;SDS011;22043;50.970;7.192;2023-04-24T06:50:01;10.77;;;5.07;;
35959;SDS011;22043;50.970;7.192;2023-04-24T06:52:27;12.38;;;5.20;;
35959;SDS011;22043;50.970;7.192;2023-04-24T06:54:52;7.00;;;4.72;;
35959;SDS011;22043;50.970;7.192;2023-04-24T06:57:24;8.85;;;4.78;;
35959;SDS011;22043;50.970;7.192;2023-04-24T06:59:51;8.55;;;5.45;;
35959;SDS011;22043;50.970;7.192;2023-04-24T07:02:16;8.07;;;5.63;;
35959;SDS011;22043;50.970;7.192;2023-04-24T07:07:47;8.40;;;4.43;;
35959;SDS011;22043;50.970;7.192;2023-04-24T07:10:28;6.57;;;4.07;;
35959;SDS011;22043;50.970;7.192;2023-04-24T07:13:09;11.27;;;5.97;;
35959;SDS011;22043;50.970;7.192;2023-04-24T07:16:02;6.18;;;3.60;;
35959;SDS011;22043;50.970;7.192;2023-04-24T07:19:06;6.78;;;3.80;;
35959;SDS011;22043;50.970;7.192;2023-04-24T07:21:34;7.68;;;4.05;;
35959;SDS011;22043;50.970;7.192;2023-04-24T07:24:00;4.93;;;2.92;;
35959;SDS011;22043;50.970;7.192;2023-04-24T07:26:26;5.45;;;3.15;;
35959;SDS011;22043;50.970;7.192;2023-04-24T07:28:53;4.53;;;2.97;;
35959;SDS011;22043;50.970;7.192;2023-04-24T07:33:54;4.20;;;2.20;;
35959;SDS011;22043;50.970;7.192;2023-04-24T07:36:23;4.75;;;2.67;;
35959;SDS011;22043;50.970;7.192;2023-04-24T07:38:49;5.20;;;2.60;;
35959;SDS011;22043;50.970;7.192;2023-04-24T07:41:25;5.43;;;2.42;;
35959;SDS011;22043;50.970;7.192;2023-04-24T07:43:54;3.63;;;2.25;;
35959;SDS011;22043;50.970;7.192;2023-04-24T07:46:20;3.63;;;2.03;;
35959;SDS011;22043;50.970;7.192;2023-04-24T07:48:51;6.28;;;2.20;;
35959;SDS011;22043;50.970;7.192;2023-04-24T07:51:23;6.03;;;1.90;;
35959;SDS011;22043;50.970;7.192;2023-04-24T07:53:49;5.68;;;2.88;;
35959;SDS011;22043;50.970;7.192;2023-04-24T08:03:54;1.20;;;0.70;;
35959;SDS011;22043;50.970;7.192;2023-04-24T08:06:23;2.15;;;0.85;;
35959;SDS011;22043;50.970;7.192;2023-04-24T08:09:22;2.15;;;0.80;;
35959;SDS011;22043;50.970;7.192;2023-04-24T08:12:02;2.83;;;1.20;;
35959;SDS011;22043;50.970;7.192;2023-04-24T08:14:31;2.20;;;0.80;;
35959;SDS011;22043;50.970;7.192;2023-04-24T08:17:12;1.92;;;0.88;;
35959;SDS011;22043;50.970;7.192;2023-04-24T08:19:46;1.13;;;0.70;;
35959;SDS011;22043;50.970;7.192;2023-04-24T08:22:28;1.65;;;0.90;;
35959;SDS011;22043;50.970;7.192;2023-04-24T08:25:18;1.48;;;0.77;;
35959;SDS011;22043;50.970;7.192;2023-04-24T08:27:50;1.25;;;0.60;;
35959;SDS011;22043;50.970;7.192;2023-04-24T08:30:27;2.88;;;1.27;;
35959;SDS011;22043;50.970;7.192;2023-04-24T08:32:57;2.78;;;1.33;;
35959;SDS011;22043;50.970;7.192;2023-04-24T08:35:34;4.05;;;1.15;;
35959;SDS011;22043;50.970;7.192;2023-04-24T08:38:00;3.25;;;1.40;;
35959;SDS011;22043;50.970;7.192;2023-04-24T08:40:29;3.17;;;1.40;;
35959;SDS011;22043;50.970;7.192;2023-04-24T08:43:11;2.30;;;0.80;;
35959;SDS011;22043;50.970;7.192;2023-04-24T08:45:43;1.58;;;0.80;;
35959;SDS011;22043;50.970;7.192;2023-04-24T08:48:26;2.22;;;1.00;;
35959;SDS011;22043;50.970;7.192;2023-04-24T08:50:51;2.45;;;1.10;;
35959;SDS011;22043;50.970;7.192;2023-04-24T08:53:17;3.13;;;1.23;;
35959;SDS011;22043;50.970;7.192;2023-04-24T08:55:55;2.08;;;1.35;;
35959;SDS011;22043;50.970;7.192;2023-04-24T08:58:25;2.08;;;0.70;;
35959;SDS011;22043;50.970;7.192;2023-04-24T09:00:54;2.03;;;1.23;;
35959;SDS011;22043;50.970;7.192;2023-04-24T09:03:27;4.13;;;1.33;;
35959;SDS011;22043;50.970;7.192;2023-04-24T09:05:53;2.88;;;1.20;;
35959;SDS011;22043;50.970;7.192;2023-04-24T09:08:20;2.40;;;1.23;;
35959;SDS011;22043;50.970;7.192;2023-04-24T09:10:49;5.95;;;1.48;;
35959;SDS011;22043;50.970;7.192;2023-04-24T09:13:35;4.22;;;1.67;;
35959;SDS011;22043;50.970;7.192;2023-04-24T09:16:00;5.43;;;2.00;;
35959;SDS011;22043;50.970;7.192;2023-04-24T09:18:26;3.65;;;1.30;;
35959;SDS011;22043;50.970;7.192;2023-04-24T09:21:07;3.47;;;1.60;;
35959;SDS011;22043;50.970;7.192;2023-04-24T09:23:34;3.50;;;1.58;;
35959;SDS011;22043;50.970;7.192;2023-04-24T09:26:01;13.02;;;5.32;;
35959;SDS011;22043;50.970;7.192;2023-04-24T09:28:40;3.67;;;2.10;;
35959;SDS011;22043;50.970;7.192;2023-04-24T09:31:11;6.57;;;3.10;;
35959;SDS011;22043;50.970;7.192;2023-04-24T09:33:39;8.90;;;3.00;;
35959;SDS011;22043;50.970;7.192;2023-04-24T09:36:04;6.43;;;2.83;;
35959;SDS011;22043;50.970;7.192;2023-04-24T09:38:37;7.82;;;2.72;;
35959;SDS011;22043;50.970;7.192;2023-04-24T09:41:07;7.43;;;2.90;;
35959;SDS011;22043;50.970;7.192;2023-04-24T09:43:34;4.80;;;3.05;;
35959;SDS011;22043;50.970;7.192;2023-04-24T09:46:04;6.55;;;3.17;;
35959;SDS011;22043;50.970;7.192;2023-04-24T09:48:39;6.82;;;3.47;;
35959;SDS011;22043;50.970;7.192;2023-04-24T09:51:06;7.28;;;3.50;;
35959;SDS011;22043;50.970;7.192;2023-04-24T09:53:37;8.85;;;4.05;;
35959;SDS011;22043;50.970;7.192;2023-04-24T09:56:09;7.35;;;4.15;;
35959;SDS011;22043;50.970;7.192;2023-04-24T09:58:35;8.23;;;4.00;;
35959;SDS011;22043;50.970;7.192;2023-04-24T10:01:02;6.70;;;3.25;;
35959;SDS011;22043;50.970;7.192;2023-04-24T10:03:31;10.38;;;3.83;;
35959;SDS011;22043;50.970;7.192;2023-04-24T10:06:03;9.10;;;4.15;;
35959;SDS011;22043;50.970;7.192;2023-04-24T10:08:34;8.98;;;4.65;;
35959;SDS011;22043;50.970;7.192;2023-04-24T10:11:01;9.35;;;4.72;;
35959;SDS011;22043;50.970;7.192;2023-04-24T10:13:27;9.18;;;4.88;;
35959;SDS011;22043;50.970;7.192;2023-04-24T10:15:53;8.52;;;4.45;;
35959;SDS011;22043;50.970;7.192;2023-04-24T10:21:18;9.75;;;5.50;;
35959;SDS011;22043;50.970;7.192;2023-04-24T10:27:55;10.68;;;6.47;;
35959;SDS011;22043;50.970;7.192;2023-04-24T10:45:39;11.88;;;6.45;;
35959;SDS011;22043;50.970;7.192;2023-04-24T10:48:05;11.68;;;5.72;;
35959;SDS011;22043;50.970;7.192;2023-04-24T10:50:42;9.15;;;5.43;;
35959;SDS011;22043;50.970;7.192;2023-04-24T10:53:15;11.52;;;4.95;;
35959;SDS011;22043;50.970;7.192;2023-04-24T10:55:43;10.57;;;4.78;;
35959;SDS011;22043;50.970;7.192;2023-04-24T10:58:12;15.55;;;5.20;;
35959;SDS011;22043;50.970;7.192;2023-04-24T11:00:38;7.70;;;4.15;;
35959;SDS011;22043;50.970;7.192;2023-04-24T11:03:06;11.38;;;5.25;;
35959;SDS011;22043;50.970;7.192;2023-04-24T11:05:49;9.85;;;5.30;;
35959;SDS011;22043;50.970;7.192;2023-04-24T11:10:56;11.82;;;4.57;;
35959;SDS011;22043;50.970;7.192;2023-04-24T11:13:24;10.23;;;4.88;;
35959;SDS011;22043;50.970;7.192;2023-04-24T11:22:15;8.50;;;4.18;;
35959;SDS011;22043;50.970;7.192;2023-04-24T11:27:15;10.85;;;3.42;;
35959;SDS011;22043;50.970;7.192;2023-04-24T11:32:15;9.63;;;3.30;;
35959;SDS011;22043;50.970;7.192;2023-04-24T11:34:46;13.07;;;3.17;;
35959;SDS011;22043;50.970;7.192;2023-04-24T11:37:16;9.60;;;2.80;;
35959;SDS011;22043;50.970;7.192;2023-04-24T11:39:41;10.55;;;2.72;;
35959;SDS011;22043;50.970;7.192;2023-04-24T11:42:08;11.43;;;3.63;;
35959;SDS011;22043;50.970;7.192;2023-04-24T11:44:34;8.45;;;3.72;;
35959;SDS011;22043;50.970;7.192;2023-04-24T11:47:06;8.02;;;2.90;;
35959;SDS011;22043;50.970;7.192;2023-04-24T11:49:33;8.65;;;3.45;;
35959;SDS011;22043;50.970;7.192;2023-04-24T11:52:01;10.90;;;3.13;;
35959;SDS011;22043;50.970;7.192;2023-04-24T11:54:27;10.70;;;3.38;;
35959;SDS011;22043;50.970;7.192;2023-04-24T11:56:53;8.55;;;2.95;;
35959;SDS011;22043;50.970;7.192;2023-04-24T11:59:19;8.60;;;2.97;;
35959;SDS011;22043;50.970;7.192;2023-04-24T12:01:47;14.32;;;3.78;;
35959;SDS011;22043;50.970;7.192;2023-04-24T12:04:17;10.43;;;3.28;;
35959;SDS011;22043;50.970;7.192;2023-04-24T12:06:59;13.00;;;3.85;;
35959;SDS011;22043;50.970;7.192;2023-04-24T12:09:28;9.10;;;4.38;;
35959;SDS011;22043;50.970;7.192;2023-04-24T12:11:55;12.57;;;3.35;;
35959;SDS011;22043;50.970;7.192;2023-04-24T12:14:22;9.30;;;3.58;;
35959;SDS011;22043;50.970;7.192;2023-04-24T12:16:48;11.82;;;4.15;;
35959;SDS011;22043;50.970;7.192;2023-04-24T12:19:21;9.70;;;3.83;;
35959;SDS011;22043;50.970;7.192;2023-04-24T12:22:03;10.43;;;4.43;;
35959;SDS011;22043;50.970;7.192;2023-04-24T12:24:30;12.77;;;4.72;;
35959;SDS011;22043;50.970;7.192;2023-04-24T12:26:56;13.40;;;4.82;;
35959;SDS011;22043;50.970;7.192;2023-04-24T12:29:23;11.27;;;4.82;;
35959;SDS011;22043;50.970;7.192;2023-04-24T12:31:50;11.10;;;4.90;;
35959;SDS011;22043;50.970;7.192;2023-04-24T12:34:17;13.13;;;5.20;;
35959;SDS011;22043;50.970;7.192;2023-04-24T12:36:43;10.10;;;4.78;;
35959;SDS011;22043;50.970;7.192;2023-04-24T12:39:14;13.40;;;5.15;;
35959;SDS011;22043;50.970;7.192;2023-04-24T12:41:56;11.45;;;5.68;;
35959;SDS011;22043;50.970;7.192;2023-04-24T12:44:29;11.80;;;5.00;;
35959;SDS011;22043;50.970;7.192;2023-04-24T12:46:56;12.15;;;5.85;;
35959;SDS011;22043;50.970;7.192;2023-04-24T12:49:22;15.00;;;5.07;;
35959;SDS011;22043;50.970;7.192;2023-04-24T12:51:48;11.50;;;4.93;;
35959;SDS011;22043;50.970;7.192;2023-04-24T12:54:14;20.27;;;5.40;;
35959;SDS011;22043;50.970;7.192;2023-04-24T12:56:39;18.02;;;6.70;;
35959;SDS011;22043;50.970;7.192;2023-04-24T12:59:05;13.02;;;5.38;;
35959;SDS011;22043;50.970;7.192;2023-04-24T13:01:30;8.45;;;4.03;;
35959;SDS011;22043;50.970;7.192;2023-04-24T13:03:56;10.57;;;4.97;;
35959;SDS011;22043;50.970;7.192;2023-04-24T13:06:21;10.70;;;3.75;;
35959;SDS011;22043;50.970;7.192;2023-04-24T13:08:47;12.35;;;4.53;;
35959;SDS011;22043;50.970;7.192;2023-04-24T13:11:14;9.88;;;3.58;;
35959;SDS011;22043;50.970;7.192;2023-04-24T13:13:40;8.23;;;4.07;;
35959;SDS011;22043;50.970;7.192;2023-04-24T13:16:06;8.02;;;3.22;;
35959;SDS011;22043;50.970;7.192;2023-04-24T13:18:32;7.55;;;3.75;;
35959;SDS011;22043;50.970;7.192;2023-04-24T13:20:59;10.23;;;4.97;;
35959;SDS011;22043;50.970;7.192;2023-04-24T13:23:26;8.52;;;3.50;;
35959;SDS011;22043;50.970;7.192;2023-04-24T13:25:53;10.18;;;3.63;;
35959;SDS011;22043;50.970;7.192;2023-04-24T13:28:25;9.82;;;3.15;;
35959;SDS011;22043;50.970;7.192;2023-04-24T13:30:51;7.88;;;3.10;;
35959;SDS011;22043;50.970;7.192;2023-04-24T13:33:17;10.25;;;3.97;;
35959;SDS011;22043;50.970;7.192;2023-04-24T13:35:43;10.10;;;4.43;;
35959;SDS011;22043;50.970;7.192;2023-04-24T13:38:09;6.63;;;3.15;;
35959;SDS011;22043;50.970;7.192;2023-04-24T13:40:34;10.30;;;4.45;;
35959;SDS011;22043;50.970;7.192;2023-04-24T13:43:03;9.45;;;3.72;;
35959;SDS011;22043;50.970;7.192;2023-04-24T13:45:32;11.70;;;4.25;;
35959;SDS011;22043;50.970;7.192;2023-04-24T13:47:59;8.85;;;3.63;;
35959;SDS011;22043;50.970;7.192;2023-04-24T13:50:26;7.95;;;3.25;;
35959;SDS011;22043;50.970;7.192;2023-04-24T13:52:52;8.93;;;3.67;;
35959;SDS011;22043;50.970;7.192;2023-04-24T13:55:19;7.50;;;3.50;;
35959;SDS011;22043;50.970;7.192;2023-04-24T13:57:47;10.68;;;4.53;;
35959;SDS011;22043;50.970;7.192;2023-04-24T14:00:13;8.40;;;3.72;;
35959;SDS011;22043;50.970;7.192;2023-04-24T14:02:38;8.50;;;3.30;;
35959;SDS011;22043;50.970;7.192;2023-04-24T14:05:04;13.73;;;3.58;;
35959;SDS011;22043;50.970;7.192;2023-04-24T14:07:31;6.97;;;3.40;;
35959;SDS011;22043;50.970;7.192;2023-04-24T14:09:57;9.35;;;3.38;;
35959;SDS011;22043;50.970;7.192;2023-04-24T14:12:22;10.80;;;3.22;;
35959;SDS011;22043;50.970;7.192;2023-04-24T14:14:52;7.88;;;3.17;;
35959;SDS011;22043;50.970;7.192;2023-04-24T14:17:18;7.47;;;3.05;;
35959;SDS011;22043;50.970;7.192;2023-04-24T14:22:12;8.40;;;3.10;;
35959;SDS011;22043;50.970;7.192;2023-04-24T14:24:40;14.85;;;3.65;;
35959;SDS011;22043;50.970;7.192;2023-04-24T14:27:09;12.23;;;2.88;;
35959;SDS011;22043;50.970;7.192;2023-04-24T14:29:37;7.45;;;2.67;;
35959;SDS011;22043;50.970;7.192;2023-04-24T14:32:03;7.72;;;2.55;;
35959;SDS011;22043;50.970;7.192;2023-04-24T14:34:30;7.68;;;2.97;;
35959;SDS011;22043;50.970;7.192;2023-04-24T14:37:02;7.72;;;3.15;;
35959;SDS011;22043;50.970;7.192;2023-04-24T14:39:29;5.35;;;2.55;;
35959;SDS011;22043;50.970;7.192;2023-04-24T14:41:55;8.10;;;3.13;;
35959;SDS011;22043;50.970;7.192;2023-04-24T14:44:26;6.95;;;2.88;;
35959;SDS011;22043;50.970;7.192;2023-04-24T14:46:55;7.80;;;3.15;;
35959;SDS011;22043;50.970;7.192;2023-04-24T14:49:21;9.57;;;3.22;;
35959;SDS011;22043;50.970;7.192;2023-04-24T14:51:46;6.93;;;2.90;;
35959;SDS011;22043;50.970;7.192;2023-04-24T14:54:13;6.05;;;2.63;;
35959;SDS011;22043;50.970;7.192;2023-04-24T14:56:39;7.82;;;3.55;;
35959;SDS011;22043;50.970;7.192;2023-04-24T14:59:06;9.82;;;2.92;;
35959;SDS011;22043;50.970;7.192;2023-04-24T15:01:32;5.85;;;2.75;;
35959;SDS011;22043;50.970;7.192;2023-04-24T15:04:03;7.57;;;3.40;;
35959;SDS011;22043;50.970;7.192;2023-04-24T15:06:32;6.35;;;2.88;;
35959;SDS011;22043;50.970;7.192;2023-04-24T15:08:58;8.45;;;3.70;;
35959;SDS011;22043;50.970;7.192;2023-04-24T15:11:24;10.65;;;3.53;;
35959;SDS011;22043;50.970;7.192;2023-04-24T15:13:52;8.73;;;3.47;;
35959;SDS011;22043;50.970;7.192;2023-04-24T15:16:18;8.68;;;2.80;;
35959;SDS011;22043;50.970;7.192;2023-04-24T15:18:47;6.25;;;2.70;;
35959;SDS011;22043;50.970;7.192;2023-04-24T15:21:13;9.55;;;2.50;;
35959;SDS011;22043;50.970;7.192;2023-04-24T15:23:39;5.80;;;2.97;;
35959;SDS011;22043;50.970;7.192;2023-04-24T15:26:13;7.32;;;2.92;;
35959;SDS011;22043;50.970;7.192;2023-04-24T15:28:41;7.70;;;2.72;;
35959;SDS011;22043;50.970;7.192;2023-04-24T15:31:08;4.80;;;2.50;;
35959;SDS011;22043;50.970;7.192;2023-04-24T15:33:35;6.18;;;2.90;;
35959;SDS011;22043;50.970;7.192;2023-04-24T15:36:09;7.00;;;2.20;;
35959;SDS011;22043;50.970;7.192;2023-04-24T15:38:44;6.65;;;2.30;;
35959;SDS011;22043;50.970;7.192;2023-04-24T15:41:15;5.13;;;2.47;;
35959;SDS011;22043;50.970;7.192;2023-04-24T15:43:44;6.75;;;2.65;;
35959;SDS011;22043;50.970;7.192;2023-04-24T15:46:15;7.13;;;2.95;;
35959;SDS011;22043;50.970;7.192;2023-04-24T15:48:46;5.47;;;2.17;;
35959;SDS011;22043;50.970;7.192;2023-04-24T15:51:12;6.20;;;2.70;;
35959;SDS011;22043;50.970;7.192;2023-04-24T15:53:41;7.82;;;3.10;;